createdAt,value
2023-02-06T00:00:55.897Z,74.73
2023-02-06T00:03:23.682Z,74.82
2023-02-06T00:05:59.075Z,74.86
2023-02-06T00:08:27.476Z,75.03
2023-02-06T00:10:55.518Z,75.17
2023-02-06T00:13:30.955Z,75.53
2023-02-06T00:16:20.144Z,75.36
2023-02-06T00:18:48.333Z,75.41
2023-02-06T00:21:21.384Z,75.45
2023-02-06T00:23:49.282Z,75.29
2023-02-06T00:26:17.463Z,75.34
2023-02-06T00:28:45.737Z,75.24
2023-02-06T00:31:15.226Z,75.41
2023-02-06T00:33:43.407Z,75.38
2023-02-06T00:36:11.387Z,75.90
2023-02-06T00:38:39.392Z,76.11
2023-02-06T00:41:07.550Z,76.45
2023-02-06T00:43:35.691Z,77.03
2023-02-06T00:46:03.709Z,77.43
2023-02-06T00:48:31.651Z,78.00
2023-02-06T00:50:59.902Z,78.26
2023-02-06T00:53:28.091Z,78.43
2023-02-06T00:55:56.155Z,78.77
2023-02-06T00:58:24.446Z,78.84
2023-02-06T01:00:52.671Z,79.12
2023-02-06T01:03:20.949Z,79.15
2023-02-06T01:05:48.916Z,79.14
2023-02-06T01:08:16.954Z,79.32
2023-02-06T01:10:45.059Z,79.23
2023-02-06T01:13:13.775Z,79.14
2023-02-06T01:15:42.681Z,78.87
2023-02-06T01:18:10.592Z,78.70
2023-02-06T01:20:41.380Z,78.83
2023-02-06T01:23:09.274Z,78.91
2023-02-06T01:25:39.194Z,78.80
2023-02-06T01:28:07.675Z,78.87
2023-02-06T01:30:35.664Z,78.94
2023-02-06T01:33:03.597Z,78.93
2023-02-06T01:35:31.383Z,78.88
2023-02-06T01:37:59.266Z,78.81
2023-02-06T01:40:27.114Z,78.70
2023-02-06T01:42:55.706Z,78.71
2023-02-06T01:45:32.556Z,78.57
2023-02-06T01:48:03.590Z,78.52
2023-02-06T01:50:31.801Z,78.28
2023-02-06T01:52:59.658Z,78.00
2023-02-06T01:55:29.203Z,77.70
2023-02-06T01:57:59.604Z,77.91
2023-02-06T02:00:27.644Z,77.90
2023-02-06T02:02:55.643Z,78.03
2023-02-06T02:05:23.529Z,78.14
2023-02-06T02:08:01.100Z,78.12
2023-02-06T02:10:29.867Z,78.07
2023-02-06T02:12:59.927Z,77.59
2023-02-06T02:15:39.189Z,77.22
2023-02-06T02:18:16.166Z,77.34
2023-02-06T02:21:14.749Z,77.26
2023-02-06T02:23:46.918Z,77.31
2023-02-06T02:26:33.793Z,77.12
2023-02-06T02:29:29.744Z,76.90
2023-02-06T02:32:14.137Z,76.70
2023-02-06T02:34:47.751Z,76.43
2023-02-06T02:38:09.728Z,76.14
2023-02-06T02:41:01.708Z,75.68
2023-02-06T02:43:55.393Z,75.54
2023-02-06T02:46:29.333Z,75.10
2023-02-06T02:49:02.166Z,74.95
2023-02-06T02:51:30.212Z,74.80
2023-02-06T02:53:58.246Z,74.84
2023-02-06T02:56:26.803Z,74.62
2023-02-06T02:58:58.408Z,74.54
2023-02-06T03:01:32.119Z,74.39
2023-02-06T03:04:09.379Z,74.19
2023-02-06T03:06:44.606Z,74.26
2023-02-06T03:09:45.807Z,74.41
2023-02-06T03:12:28.477Z,74.23
2023-02-06T03:14:59.927Z,74.34
2023-02-06T03:17:51.581Z,74.15
2023-02-06T03:20:19.440Z,73.96
2023-02-06T03:22:47.797Z,73.78
2023-02-06T03:25:18.783Z,73.51
2023-02-06T03:27:47.259Z,73.47
2023-02-06T03:30:15.137Z,73.35
2023-02-06T03:32:51.556Z,73.37
2023-02-06T03:35:21.202Z,73.34
2023-02-06T03:37:49.233Z,73.36
2023-02-06T03:40:34.170Z,73.39
2023-02-06T03:43:03.892Z,73.51
2023-02-06T03:45:42.157Z,73.42
2023-02-06T03:48:24.611Z,73.75
2023-02-06T03:50:54.298Z,73.86
2023-02-06T03:53:22.542Z,73.77
2023-02-06T03:55:50.762Z,73.96
2023-02-06T03:58:20.190Z,74.02
2023-02-06T04:00:48.386Z,73.98
2023-02-06T04:03:16.931Z,73.89
2023-02-06T04:05:44.870Z,73.80
2023-02-06T04:08:14.592Z,73.61
2023-02-06T04:10:42.553Z,73.65
2023-02-06T04:13:11.031Z,73.87
2023-02-06T04:15:39.064Z,73.63
2023-02-06T04:18:07.025Z,73.72
2023-02-06T04:20:41.010Z,73.64
2023-02-06T04:23:08.924Z,73.65
2023-02-06T04:25:37.096Z,73.56
2023-02-06T04:28:05.640Z,73.88
2023-02-06T04:30:34.234Z,73.93
2023-02-06T04:33:02.267Z,74.00
2023-02-06T04:35:30.153Z,73.74
2023-02-06T04:37:58.106Z,73.78
2023-02-06T04:40:25.911Z,73.88
2023-02-06T04:42:53.706Z,73.99
2023-02-06T04:45:22.326Z,73.90
2023-02-06T04:47:50.348Z,73.80
2023-02-06T04:50:18.409Z,73.65
2023-02-06T04:52:46.625Z,73.71
2023-02-06T04:55:14.463Z,73.93
2023-02-06T04:57:42.386Z,74.12
2023-02-06T05:00:11.193Z,73.99
2023-02-06T05:02:39.827Z,74.29
2023-02-06T05:05:08.650Z,74.16
2023-02-06T05:07:37.233Z,74.18
2023-02-06T05:10:05.201Z,74.38
2023-02-06T05:12:33.244Z,74.38
2023-02-06T05:15:01.562Z,74.46
2023-02-06T05:17:29.901Z,74.40
2023-02-06T05:19:58.571Z,74.47
2023-02-06T05:22:26.760Z,74.44
2023-02-06T05:24:54.558Z,74.55
2023-02-06T05:27:22.348Z,74.65
2023-02-06T05:29:50.623Z,74.52
2023-02-06T05:32:19.318Z,74.41
2023-02-06T05:34:47.118Z,74.41
2023-02-06T05:37:14.914Z,74.54
2023-02-06T05:39:43.136Z,74.14
2023-02-06T05:42:10.896Z,74.08
2023-02-06T05:44:38.964Z,73.96
2023-02-06T05:47:06.918Z,73.90
2023-02-06T05:49:35.161Z,73.79
2023-02-06T05:52:03.003Z,73.65
2023-02-06T05:54:30.963Z,73.61
2023-02-06T05:57:00.306Z,73.57
2023-02-06T05:59:28.123Z,73.56
2023-02-06T06:01:55.945Z,73.71
2023-02-06T06:04:24.121Z,73.73
2023-02-06T06:06:55.398Z,73.79
2023-02-06T06:09:23.790Z,73.85
2023-02-06T06:13:02.371Z,73.73
2023-02-06T06:15:30.433Z,73.79
2023-02-06T06:18:01.375Z,73.67
2023-02-06T06:20:29.653Z,73.62
2023-02-06T06:22:57.655Z,73.68
2023-02-06T06:25:25.486Z,73.63
2023-02-06T06:27:53.602Z,73.54
2023-02-06T06:30:23.374Z,73.44
2023-02-06T06:32:51.845Z,73.37
2023-02-06T06:35:20.262Z,73.26
2023-02-06T06:37:48.104Z,72.95
2023-02-06T06:40:16.306Z,72.93
2023-02-06T06:42:44.540Z,72.88
2023-02-06T06:45:12.533Z,72.53
2023-02-06T06:47:40.802Z,72.60
2023-02-06T06:50:11.644Z,72.39
2023-02-06T06:52:39.420Z,72.51
2023-02-06T06:55:07.926Z,72.25
2023-02-06T06:57:35.768Z,72.31
2023-02-06T07:00:04.460Z,72.34
2023-02-06T07:02:32.740Z,72.21
2023-02-06T07:05:00.672Z,72.09
2023-02-06T07:07:28.833Z,72.00
2023-02-06T07:09:56.991Z,71.85
2023-02-06T07:12:25.016Z,71.74
2023-02-06T07:14:53.788Z,71.42
2023-02-06T07:17:21.658Z,71.55
2023-02-06T07:19:52.423Z,71.49
2023-02-06T07:22:20.469Z,71.39
2023-02-06T07:24:48.512Z,71.20
2023-02-06T07:27:16.623Z,71.24
2023-02-06T07:29:44.504Z,71.14
2023-02-06T07:32:12.417Z,71.13
2023-02-06T07:34:40.836Z,70.81
2023-02-06T07:37:08.660Z,70.57
2023-02-06T07:39:36.478Z,70.53
2023-02-06T12:09:34.971Z,52.95
2023-02-06T12:12:18.125Z,52.86
2023-02-06T12:14:51.883Z,53.35
2023-02-06T12:17:40.073Z,52.94
2023-02-06T12:20:26.461Z,52.72
2023-02-06T12:23:01.285Z,52.41
2023-02-06T12:25:41.621Z,52.31
2023-02-06T12:28:15.430Z,52.39
2023-02-06T12:30:51.418Z,52.39
2023-02-06T12:33:22.506Z,52.76
2023-02-06T12:35:59.452Z,53.02
2023-02-06T12:38:41.994Z,52.74
2023-02-06T12:41:28.810Z,52.73
2023-02-06T12:44:00.895Z,53.19
2023-02-06T12:46:30.237Z,53.87
2023-02-06T12:49:12.356Z,54.04
2023-02-06T12:51:43.332Z,54.36
2023-02-06T12:54:40.852Z,54.47
2023-02-06T12:57:17.349Z,54.89
2023-02-06T13:00:12.806Z,54.86
2023-02-06T13:02:50.072Z,55.01
2023-02-06T13:05:27.036Z,54.82
2023-02-06T13:07:56.951Z,55.10
2023-02-06T13:10:25.492Z,54.77
2023-02-06T13:12:58.563Z,54.80
2023-02-06T13:15:38.883Z,55.05
2023-02-06T13:18:41.857Z,54.95
2023-02-06T13:21:16.320Z,55.32
2023-02-06T13:24:02.754Z,55.43
2023-02-06T13:26:46.323Z,55.76
2023-02-06T13:29:37.626Z,55.80
2023-02-06T13:32:22.653Z,56.08
2023-02-06T13:35:10.126Z,56.10
2023-02-06T13:37:40.754Z,56.23
2023-02-06T13:40:24.048Z,56.58
2023-02-06T13:43:19.738Z,56.73
2023-02-06T13:45:59.665Z,56.86
2023-02-06T13:48:46.808Z,56.92
2023-02-06T13:51:33.803Z,57.17
2023-02-06T13:54:35.826Z,57.24
2023-02-06T13:57:31.638Z,57.61
2023-02-06T14:00:24.323Z,57.42
2023-02-06T14:03:11.202Z,57.39
2023-02-06T14:05:54.996Z,57.15
2023-02-06T14:08:28.865Z,57.02
2023-02-06T14:11:09.708Z,56.83
2023-02-06T14:13:38.176Z,56.40
2023-02-06T14:16:31.517Z,55.72
2023-02-06T14:19:05.021Z,55.40
2023-02-06T14:21:55.889Z,55.31
2023-02-06T14:24:45.788Z,55.42
2023-02-06T14:27:19.733Z,55.39
2023-02-06T14:30:07.328Z,55.40
2023-02-06T14:32:54.346Z,55.80
2023-02-06T14:35:38.210Z,55.63
2023-02-06T14:38:17.925Z,55.66
2023-02-06T14:40:49.868Z,55.82
2023-02-06T14:43:22.060Z,55.94
2023-02-06T14:46:05.689Z,56.22
2023-02-06T14:48:44.850Z,56.31
2023-02-06T14:51:42.034Z,56.36
2023-02-06T14:54:36.581Z,56.64
2023-02-06T14:57:06.591Z,56.94
2023-02-06T14:59:34.616Z,56.86
2023-02-06T15:02:12.559Z,56.99
2023-02-06T15:04:47.409Z,56.81
2023-02-06T15:07:22.608Z,56.88
2023-02-06T15:10:06.934Z,56.82
2023-02-06T15:12:35.419Z,56.45
2023-02-06T15:15:19.818Z,56.40
2023-02-06T15:18:00.894Z,56.55
2023-02-06T15:20:45.199Z,56.75
2023-02-06T15:23:25.106Z,56.69
2023-02-06T15:26:04.178Z,56.32
2023-02-06T15:28:34.286Z,56.35
2023-02-06T15:31:02.690Z,56.66
2023-02-06T15:33:33.125Z,56.63
2023-02-06T15:36:03.261Z,56.54
2023-02-06T15:38:32.267Z,56.72
2023-02-06T15:41:03.729Z,56.72
2023-02-06T15:43:34.302Z,56.48
2023-02-06T18:37:20.517Z,62.68
2023-02-06T18:39:48.871Z,62.62
2023-02-06T18:42:35.222Z,62.57
2023-02-06T18:45:04.224Z,62.39
2023-02-06T18:47:32.273Z,62.30
2023-02-06T18:50:00.392Z,62.32
2023-02-06T18:52:28.796Z,61.87
2023-02-06T18:54:56.790Z,62.09
2023-02-06T18:57:24.760Z,62.00
2023-02-06T18:59:54.983Z,61.96
2023-02-06T19:02:22.890Z,61.84
2023-02-06T19:04:51.153Z,61.96
2023-02-06T19:07:19.188Z,61.68
2023-02-06T19:09:47.052Z,61.83
2023-02-06T19:12:14.832Z,61.66
2023-02-06T19:14:42.694Z,61.55
2023-02-06T19:17:11.689Z,61.38
2023-02-06T19:19:39.621Z,61.19
2023-02-06T19:22:07.859Z,61.32
2023-02-06T19:24:36.250Z,61.31
2023-02-06T19:27:04.226Z,61.21
2023-02-06T19:29:36.091Z,61.14
2023-02-06T19:32:05.906Z,61.06
2023-02-06T19:34:36.564Z,61.01
2023-02-06T19:37:05.009Z,61.11
2023-02-06T19:39:34.425Z,61.15
2023-02-06T19:42:06.964Z,61.12
2023-02-06T19:44:35.512Z,61.18
2023-02-06T19:47:03.453Z,61.07
2023-02-06T19:49:34.748Z,61.14
2023-02-06T19:52:04.512Z,61.30
2023-02-06T19:54:32.721Z,61.41
2023-02-06T19:57:00.724Z,61.49
2023-02-06T19:59:29.172Z,61.35
2023-02-06T20:01:58.749Z,61.35
2023-02-06T20:04:32.225Z,61.27
2023-02-06T20:07:02.219Z,61.25
2023-02-06T20:09:30.759Z,61.24
2023-02-06T20:11:59.015Z,61.33
2023-02-06T20:14:28.028Z,61.27
2023-02-06T20:16:56.052Z,61.21
2023-02-06T20:19:25.552Z,61.36
2023-02-06T20:21:55.287Z,61.38
2023-02-06T20:24:25.198Z,61.35
2023-02-06T20:26:56.739Z,61.55
2023-02-06T20:29:27.681Z,61.66
2023-02-06T20:31:56.928Z,61.91
2023-02-06T20:34:24.856Z,61.95
2023-02-06T20:36:53.385Z,62.03
2023-02-06T20:39:21.582Z,62.12
2023-02-06T20:41:50.784Z,62.17
2023-02-06T20:44:19.019Z,62.25
2023-02-06T20:46:47.362Z,62.34
2023-02-06T20:49:16.965Z,62.32
2023-02-06T20:51:45.214Z,62.50
2023-02-06T20:54:13.047Z,62.36
2023-02-06T20:56:41.036Z,62.43
2023-02-06T20:59:11.084Z,62.48
2023-02-06T21:01:39.146Z,62.41
2023-02-06T21:04:08.430Z,62.51
2023-02-06T21:06:36.875Z,62.62
2023-02-06T21:09:07.131Z,62.58
2023-02-06T21:11:37.009Z,62.67
2023-02-06T21:14:05.611Z,62.54
2023-02-06T21:16:34.210Z,62.62
2023-02-06T21:19:02.181Z,62.54
2023-02-06T21:21:30.225Z,62.60
2023-02-06T21:23:58.109Z,62.56
2023-02-06T21:26:26.139Z,62.45
2023-02-06T21:28:54.113Z,62.50
2023-02-06T21:31:23.781Z,62.47
2023-02-06T21:33:52.253Z,62.52
2023-02-06T21:36:21.284Z,62.40
2023-02-06T21:38:49.346Z,62.42
2023-02-06T21:41:19.287Z,62.49
2023-02-06T21:43:47.108Z,62.49
2023-02-06T21:46:16.277Z,62.50
2023-02-06T21:48:44.268Z,62.63
2023-02-06T21:51:14.001Z,62.61
2023-02-06T21:53:42.862Z,62.77
2023-02-06T21:56:21.561Z,62.84
2023-02-06T21:58:49.605Z,62.79
2023-02-06T22:01:26.368Z,62.92
2023-02-06T22:03:54.661Z,62.90
2023-02-06T22:06:22.675Z,62.91
2023-02-06T22:08:51.991Z,62.78
2023-02-06T22:11:23.921Z,62.92
2023-02-06T22:13:52.524Z,63.01
2023-02-06T22:16:23.838Z,62.89
2023-02-06T22:18:51.796Z,63.01
2023-02-06T22:21:21.198Z,63.00
2023-02-06T22:23:49.707Z,62.97
2023-02-06T22:26:18.508Z,63.19
2023-02-06T22:28:46.523Z,63.27
2023-02-06T22:31:22.101Z,63.38
2023-02-06T22:33:50.403Z,63.41
2023-02-06T22:36:20.306Z,63.43
2023-02-06T22:38:50.460Z,63.57
2023-02-06T22:41:18.454Z,63.68
2023-02-06T22:43:49.178Z,63.75
2023-02-06T22:46:24.531Z,63.78
2023-02-06T22:48:52.406Z,64.09
2023-02-06T22:51:20.264Z,64.23
2023-02-06T22:53:48.194Z,64.25
2023-02-06T22:56:26.732Z,64.39
2023-02-06T22:58:59.618Z,64.48
2023-02-06T23:01:33.227Z,64.67
2023-02-06T23:04:01.604Z,64.88
2023-02-06T23:06:30.376Z,65.06
2023-02-06T23:08:59.301Z,65.09
2023-02-06T23:11:28.299Z,65.34
2023-02-06T23:13:58.939Z,65.62
2023-02-06T23:16:28.779Z,65.80
2023-02-06T23:18:56.935Z,65.72
2023-02-06T23:21:25.429Z,65.90
2023-02-06T23:23:54.938Z,66.09
2023-02-06T23:26:23.128Z,66.20
2023-02-06T23:28:51.302Z,66.29
2023-02-06T23:31:19.319Z,66.65
2023-02-06T23:33:47.166Z,66.82
2023-02-06T23:36:16.282Z,66.95
2023-02-06T23:38:44.521Z,67.07
2023-02-06T23:41:17.274Z,67.14
2023-02-06T23:43:49.120Z,67.25
2023-02-06T23:46:17.335Z,67.23
2023-02-06T23:48:45.866Z,67.32
2023-02-06T23:51:13.740Z,67.36
2023-02-06T23:53:42.216Z,67.44
2023-02-06T23:56:36.458Z,67.52
2023-02-06T23:59:04.563Z,67.50
